• Join FlightAware (Why Join?)
  • Login
  • US Flag 
11:02PM EST


 

Airport Tracker/Info


-or-


 

Live Flight TrackerFlight Track Log ✈ UAL395 ✈ 16-Aug-2013 ✈ KPDX - KIAH

Flight Track Log - Related Links

Times and Time Zones

All times are in EDT time to prevent confusion due to time zone crossing. See the UAL395 flight status page for this flight to view local times or setup timezone preferences in your user account.

Time Position Orientation Groundspeed Altitude Reporting Facility
EDT Latitude Longitude Course Direction KTS MPH feet Rate Location/Type
10:13AM 45.5831 -122.5653 121° Southeast 159 183 600  Level Seattle Center
10:15AM 45.5692 -122.4753 102° East 228 262 2,400 1,860 Climbing Seattle Center
10:16AM 45.3976 -122.1564 138° Southeast  Level FlightAware Approximate
10:16AM 45.5503 -122.3814 106° East 257 296 4,800  Level Seattle Center
10:17AM 45.3054 -122.0377 138° Southeast  Level FlightAware Approximate
10:17AM 45.5064 -122.2944 126° Southeast 282 325 7,300  Level Seattle Center
10:17AM 45.4661 -122.2464 140° Southeast 274 315 9,100 2,160 Climbing Seattle Center
10:18AM 45.2261 -121.9243 139° Southeast  Level FlightAware Approximate
10:18AM 45.4433 -122.2172 138° Southeast 283 326 10,000  Level Seattle Center
10:19AM 45.1432 -121.7953 121° Southeast  Level FlightAware Approximate
10:19AM 45.3817 -122.1364 137° Southeast 300 345 11,700  Level Seattle Center
10:20AM 45.3072 -122.0425 138° Southeast 348 400 13,600 2,040 Climbing Seattle Center
10:21AM 45.2328 -121.9406 136° Southeast 368 423 15,900 2,160 Climbing Seattle Center
10:22AM 45.1633 -121.8158 128° Southeast 378 435 18,000 1,860 Climbing Seattle Center
10:23AM 45.0942 -121.6969 129° Southeast 390 449 19,700 1,620 Climbing Seattle Center
10:24AM 45.0231 -121.5758 130° Southeast 402 463 21,300 1,560 Climbing Seattle Center
10:25AM 44.9358 -121.4244 129° Southeast 414 476 22,900 1,380 Climbing Seattle Center
10:26AM 44.8606 -121.2958 130° Southeast 427 491 24,200 1,260 Climbing Seattle Center
10:27AM 44.7797 -121.1717 133° Southeast 432 497 25,500 1,260 Climbing Seattle Center
10:28AM 44.6958 -121.0492 134° Southeast 437 503 26,800 1,140 Climbing Seattle Center
10:29AM 44.6036 -120.9131 134° Southeast 441 507 27,900 1,020 Climbing Seattle Center
10:30AM 44.5139 -120.7836 134° Southeast 453 521 28,900 1,080 Climbing Seattle Center
10:31AM 44.4242 -120.6536 134° Southeast 458 527 30,200 1,080 Climbing Seattle Center
10:32AM 44.3481 -120.5450 134° Southeast 457 526 31,200 1,140 Climbing Seattle Center
10:33AM 44.2614 -120.4211 134° Southeast 452 520 32,600 1,080 Climbing Seattle Center
10:34AM 44.1750 -120.2983 134° Southeast 447 514 33,500 960 Climbing Seattle Center
10:35AM 44.0717 -120.1497 134° Southeast 448 516 34,600 720 Climbing Seattle Center
10:36AM 43.9853 -120.0300 135° Southeast 444 511 35,000 180 Climbing Seattle Center
10:37AM 43.8994 -119.9103 135° Southeast 440 506 35,000 -60 Level Seattle Center
10:38AM 43.8119 -119.7869 134° Southeast 446 513 34,900  Descending Seattle Center
10:40AM 43.6971 -119.6284 135° Southeast  Level FlightAware Approximate
10:40AM 43.6361 -119.5397 135° Southeast 451 519 35,000  Level Salt Lake Center
10:41AM 43.5478 -119.4175 135° Southeast 451 519 34,900  Descending Seattle Center
10:42AM 43.4581 -119.2961 135° Southeast 453 521 35,000  Climbing Seattle Center
10:43AM 43.3697 -119.1739 135° Southeast 452 520 35,000  Level Seattle Center
10:44AM 43.2669 -119.0347 135° Southeast 448 516 35,000 -60 Level Seattle Center
10:45AM 43.1822 -118.9189 135° Southeast 450 518 34,900 -60 Descending Seattle Center
10:46AM 43.0825 -118.7839 135° Southeast 451 519 34,900  Level Seattle Center
10:47AM 42.9942 -118.6656 136° Southeast 462 532 34,900  Level Seattle Center
10:48AM 42.9072 -118.5492 136° Southeast 460 529 34,900  Level Seattle Center
10:49AM 42.8053 -118.4136 136° Southeast 459 528 35,000  Climbing Seattle Center
10:50AM 42.7211 -118.2997 135° Southeast 451 519 34,900 -60 Descending Seattle Center
10:51AM 42.6331 -118.1836 136° Southeast 458 527 34,900  Level Seattle Center
10:52AM 42.5306 -118.0481 136° Southeast 460 529 34,900  Level Seattle Center
10:54AM 42.4125 -117.8911 136° Southeast 461 531 35,000  Climbing Salt Lake Center
10:55AM 42.3086 -117.7567 136° Southeast 466 536 34,900 -60 Descending Salt Lake Center
10:56AM 42.2194 -117.6403 136° Southeast 458 527 34,900  Level Salt Lake Center
10:57AM 42.1308 -117.5278 137° Southeast 456 525 35,000  Climbing Salt Lake Center
10:58AM 42.0272 -117.3942 136° Southeast 461 531 35,000 -60 Level Salt Lake Center
10:59AM 41.9378 -117.2781 136° Southeast 461 531 34,900 -60 Descending Salt Lake Center
11:00AM 41.8347 -117.1456 136° Southeast 458 527 34,900  Level Salt Lake Center
11:01AM 41.7447 -117.0339 137° Southeast 460 529 34,900  Level Salt Lake Center
11:02AM 41.6408 -116.9003 136° Southeast 463 533 34,900  Level Salt Lake Center
11:03AM 41.5503 -116.7864 137° Southeast 464 534 34,900  Level Salt Lake Center
11:04AM 41.4606 -116.6739 137° Southeast 462 532 34,900  Level Salt Lake Center
11:05AM 41.3558 -116.5419 137° Southeast 463 533 34,900  Level Salt Lake Center
11:06AM 41.2656 -116.4289 137° Southeast 464 534 34,900  Level Salt Lake Center
11:07AM 41.1614 -116.3003 137° Southeast 458 527 34,900  Level Salt Lake Center
11:08AM 41.0717 -116.1878 137° Southeast 460 529 34,900  Level Salt Lake Center
11:09AM 40.9653 -116.0581 137° Southeast 462 532 35,000  Climbing Salt Lake Center
11:10AM 40.8750 -115.9475 137° Southeast 461 531 34,900  Descending Salt Lake Center
11:11AM 40.7703 -115.8189 137° Southeast 459 528 35,000  Climbing Salt Lake Center
11:12AM 40.6764 -115.7089 138° Southeast 465 535 35,000 -60 Level Salt Lake Center
11:13AM 40.5869 -115.6008 137° Southeast 458 527 34,900  Descending Salt Lake Center
11:14AM 40.4819 -115.4725 137° Southeast 459 528 35,000  Climbing Salt Lake Center
11:16AM 40.3942 -115.3633 137° Southeast 455 524 34,900 -60 Descending Salt Lake Center
11:17AM 40.2853 -115.2364 138° Southeast 464 534 34,900  Level Salt Lake Center
11:18AM 40.1939 -115.1281 138° Southeast 462 532 35,000  Climbing Salt Lake Center
11:19AM 40.0878 -115.0014 138° Southeast 463 533 35,000 -60 Level Salt Lake Center
11:20AM 39.9967 -114.8939 138° Southeast 461 531 34,900  Descending Salt Lake Center
11:21AM 39.8897 -114.7678 138° Southeast 461 531 35,000  Climbing Salt Lake Center
11:22AM 39.8003 -114.6658 139° Southeast 462 532 35,000  Level Salt Lake Center
11:23AM 39.6906 -114.5372 138° Southeast 461 531 35,000 -60 Level Salt Lake Center
11:24AM 39.5989 -114.4297 138° Southeast 462 532 34,900 -60 Descending Salt Lake Center
11:25AM 39.5081 -114.3261 139° Southeast 460 529 34,900  Level Salt Lake Center
11:26AM 39.3936 -114.1933 138° Southeast 462 532 35,000  Climbing Salt Lake Center
11:27AM 39.2969 -114.0836 139° Southeast 462 532 34,900  Descending Salt Lake Center
11:28AM 39.2008 -113.9739 138° Southeast 462 532 35,000  Climbing Salt Lake Center
11:29AM 39.1050 -113.8644 138° Southeast 461 531 34,900  Descending Salt Lake Center
11:30AM 39.0092 -113.7558 139° Southeast 460 529 35,000  Climbing Salt Lake Center
11:31AM 38.9122 -113.6478 139° Southeast 461 531 35,000  Level Salt Lake Center
11:32AM 38.7978 -113.5175 138° Southeast 460 529 35,000  Level Salt Lake Center
11:33AM 38.7011 -113.4103 139° Southeast 459 528 35,000 -60 Level Salt Lake Center
11:34AM 38.6056 -113.3033 139° Southeast 457 526 34,900  Descending Salt Lake Center
11:35AM 38.5092 -113.1981 139° Southeast 455 524 35,000  Climbing Salt Lake Center
11:36AM 38.4133 -113.0914 139° Southeast 457 526 34,900 -60 Descending Salt Lake Center
11:37AM 38.3153 -112.9836 139° Southeast 463 533 34,900  Level Salt Lake Center
11:38AM 38.2181 -112.8761 139° Southeast 463 533 35,000  Climbing Salt Lake Center
11:39AM 38.1011 -112.7489 139° Southeast 460 529 35,000 -60 Level Salt Lake Center
11:40AM 38.0033 -112.6408 139° Southeast 462 532 34,900  Descending Salt Lake Center
11:41AM 37.9042 -112.5344 140° Southeast 464 534 35,000  Climbing Salt Lake Center
11:42AM 37.8053 -112.4275 139° Southeast 464 534 34,900  Descending Salt Lake Center
11:43AM 37.7075 -112.3206 139° Southeast 462 532 35,000  Climbing Salt Lake Center
11:44AM 37.6094 -112.2142 139° Southeast 462 532 34,900  Descending Salt Lake Center
11:46AM 37.5114 -112.1089 140° Southeast 461 531 35,000  Climbing Salt Lake Center
11:47AM 37.3944 -111.9839 140° Southeast 460 529 34,900  Descending Salt Lake Center
11:48AM 37.2967 -111.8786 139° Southeast 463 533 35,000  Climbing Denver Center
11:49AM 37.1983 -111.7744 140° Southeast 463 533 34,900  Descending Denver Center
11:50AM 37.1003 -111.6700 140° Southeast 462 532 35,000  Climbing Denver Center
11:51AM 37.0142 -111.5486 132° Southeast 469 540 35,000 -60 Level Denver Center
11:52AM 36.9333 -111.3450 116° Southeast 469 540 34,900  Descending Denver Center
11:53AM 36.8733 -111.2008 117° Southeast 469 540 35,000  Climbing Denver Center
11:54AM 36.8128 -111.0572 118° Southeast 468 539 34,900  Descending Denver Center
11:55AM 36.7528 -110.9136 118° Southeast 468 539 35,000  Climbing Denver Center
11:56AM 36.6925 -110.7692 117° Southeast 470 541 34,900  Descending Denver Center
11:57AM 36.6047 -110.5700 119° Southeast 471 542 35,000  Climbing Denver Center
11:58AM 36.5453 -110.4256 117° Southeast 472 543 34,900  Descending Denver Center
11:59AM 36.4828 -110.2833 119° Southeast 470 541 35,000  Climbing Denver Center
12:00PM 36.4219 -110.1397 118° Southeast 471 542 35,000  Level Denver Center
12:02PM 36.3522 -109.9753 118° Southeast 473 544 35,000 -60 Level Denver Center
12:03PM 36.2817 -109.8161 119° Southeast 473 544 34,900  Descending Denver Center
12:04PM 36.2122 -109.6564 118° Southeast 472 543 35,000  Climbing Denver Center
12:05PM 36.1522 -109.5208 119° Southeast 470 541 34,900  Descending Denver Center
12:06PM 36.0831 -109.3622 118° Southeast 470 541 35,000  Climbing Denver Center
12:07PM 36.0228 -109.2269 119° Southeast 471 542 34,900 -60 Descending Denver Center
12:08PM 35.9517 -109.0683 119° Southeast 476 548 34,900  Level Denver Center
12:09PM 35.8911 -108.9322 119° Southeast 479 551 35,000  Climbing Denver Center
12:10PM 35.8208 -108.7731 119° Southeast 479 551 34,900  Descending Denver Center
12:11PM 35.7608 -108.6369 118° Southeast 477 549 35,000  Climbing Denver Center
12:12PM 35.6894 -108.4781 119° Southeast 476 548 35,000  Level Denver Center
12:13PM 35.6275 -108.3417 119° Southeast 478 550 35,000 -60 Level Denver Center
12:14PM 35.5556 -108.1833 119° Southeast 476 548 34,900  Descending Denver Center
12:15PM 35.4739 -108.0017 119° Southeast 477 549 35,000  Climbing Albuquerque Center
12:16PM 35.4089 -107.8642 120° Southeast 484 557 34,900  Descending Albuquerque Center
12:17PM 35.3358 -107.7044 119° Southeast 482 555 35,000  Climbing Albuquerque Center
12:19PM 35.2725 -107.5675 120° Southeast 483 556 35,000  Level Albuquerque Center
12:20PM 35.1994 -107.4072 119° Southeast 483 556 35,000 -60 Level Albuquerque Center
12:21PM 35.1339 -107.2722 121° Southeast 482 555 34,900  Descending Albuquerque Center
12:22PM 35.0567 -107.1108 120° Southeast 486 559 35,000  Climbing Albuquerque Center
12:23PM 34.9900 -106.9700 120° Southeast 482 555 35,000 -60 Level Albuquerque Center
12:24PM 34.9203 -106.8242 120° Southeast 485 558 34,900 -60 Descending Albuquerque Center
12:25PM 34.8539 -106.6833 120° Southeast 484 557 34,900  Level Albuquerque Center
12:26PM 34.7850 -106.5414 121° Southeast 487 560 34,900  Level Albuquerque Center
12:27PM 34.7164 -106.3983 120° Southeast 490 564 34,900  Level Albuquerque Center
12:28PM 34.6350 -106.2286 120° Southeast 488 562 34,900  Level Albuquerque Center
12:29PM 34.5622 -106.0792 121° Southeast 493 567 34,900  Level Albuquerque Center
12:30PM 34.4931 -105.9389 121° Southeast 485 558 34,900  Level Albuquerque Center
12:31PM 34.4233 -105.7964 121° Southeast 488 562 35,000  Climbing Albuquerque Center
12:32PM 34.3422 -105.6614 126° Southeast 496 571 34,900  Descending Albuquerque Center
12:33PM 34.2422 -105.5478 137° Southeast 492 566 35,000  Climbing Albuquerque Center
12:34PM 34.1389 -105.4394 139° Southeast 490 564 34,900  Descending Albuquerque Center
12:35PM 34.0339 -105.3322 140° Southeast 490 564 35,000  Climbing Albuquerque Center
12:36PM 33.9178 -105.2133 140° Southeast 488 562 34,900  Descending Albuquerque Center
12:37PM 33.8061 -105.0989 140° Southeast 491 565 35,000  Climbing Albuquerque Center
12:38PM 33.7025 -104.9919 139° Southeast 492 566 34,900  Descending Albuquerque Center
12:39PM 33.5911 -104.8789 140° Southeast 487 560 35,000  Climbing Albuquerque Center
12:40PM 33.5014 -104.7572 131° Southeast 488 562 35,000 -60 Level Albuquerque Center
12:41PM 33.4200 -104.6336 128° Southeast 485 558 34,900 -60 Descending Albuquerque Center
12:42PM 33.3344 -104.5064 129° Southeast 488 562 34,900  Level Albuquerque Center
12:43PM 33.2483 -104.3764 128° Southeast 493 567 34,900  Level Albuquerque Center
12:44PM 33.1442 -104.2200 128° Southeast 495 570 34,900  Level Albuquerque Center
12:45PM 33.0594 -104.0931 129° Southeast 491 565 34,900  Level Albuquerque Center
12:46PM 32.9747 -103.9661 128° Southeast 491 565 35,000  Climbing Albuquerque Center
12:47PM 32.8847 -103.8311 128° Southeast 487 560 34,900 -60 Descending Albuquerque Center
12:49PM 32.8047 -103.7106 128° Southeast 490 564 34,900  Level Albuquerque Center
12:50PM 32.7225 -103.5856 128° Southeast 484 557 35,000  Climbing Albuquerque Center
12:51PM 32.6375 -103.4603 129° Southeast 486 559 34,900  Descending Albuquerque Center
12:52PM 32.5539 -103.3331 128° Southeast 489 563 35,000  Climbing Albuquerque Center
12:53PM 32.4525 -103.1808 128° Southeast 492 566 34,900  Descending Albuquerque Center
12:54PM 32.3689 -103.0547 128° Southeast 491 565 35,000  Climbing Albuquerque Center
12:55PM 32.2833 -102.9289 129° Southeast 494 568 35,000  Level Albuquerque Center
12:56PM 32.1981 -102.8031 129° Southeast 495 570 35,000 -60 Level Albuquerque Center
12:57PM 32.0947 -102.6497 128° Southeast 502 578 34,900 -60 Descending Albuquerque Center
12:58PM 32.0031 -102.5158 129° Southeast 498 573 34,900  Level Fort Worth Center
12:59PM 31.9186 -102.3864 128° Southeast 498 573 34,900  Level Fort Worth Center
01:00PM 31.8297 -102.2569 129° Southeast 498 573 34,900  Level Fort Worth Center
01:01PM 31.7428 -102.1278 128° Southeast 503 579 34,900  Level Fort Worth Center
01:02PM 31.6578 -101.9967 127° Southeast 503 579 34,900  Level Fort Worth Center
01:03PM 31.5969 -101.8325 113° Southeast 490 564 34,900  Level Fort Worth Center
01:04PM 31.5586 -101.6722 106° East 490 564 34,900  Level Fort Worth Center
01:05PM 31.5178 -101.5194 107° East 495 570 34,900  Level Fort Worth Center
01:06PM 31.4853 -101.3644 104° East 495 570 34,900  Level Fort Worth Center
01:07PM 31.4608 -101.2075 100° East 484 557 34,900  Level Fort Worth Center
01:08PM 31.4486 -101.0511 95° East 484 557 34,900  Level Fort Worth Center
01:09PM 31.4283 -100.8897 98° East 489 563 34,900  Level Fort Worth Center
01:11PM 31.4003 -100.6481 98° East 488 562 34,900  Level Houston Center
01:12PM 31.3806 -100.4908 98° East 489 563 34,900  Level Houston Center
01:13PM 31.3650 -100.3308 96° East 494 568 34,900  Level Houston Center
01:14PM 31.3433 -100.1742 99° East 489 563 34,900  Level Houston Center
01:15PM 31.3247 -100.0042 97° East 496 571 34,900  Level Houston Center
01:16PM 31.3072 -99.8436 97° East 495 570 34,900  Level Houston Center
01:17PM 31.2831 -99.6567 99° East 495 570 34,900  Level Houston Center
01:18PM 31.2631 -99.4950 98° East 498 573 35,000  Climbing Houston Center
01:19PM 31.2453 -99.3328 97° East 498 573 34,900 -60 Descending Houston Center
01:20PM 31.2239 -99.1717 99° East 499 574 34,900  Level Houston Center
01:21PM 31.2050 -99.0106 98° East 498 573 34,900  Level Houston Center
01:22PM 31.1842 -98.8486 99° East 499 574 34,900  Level Houston Center
01:23PM 31.1642 -98.6864 98° East 501 577 34,900  Level Houston Center
01:24PM 31.1431 -98.5239 99° East 502 578 34,900  Level Houston Center
01:25PM 31.1214 -98.3625 99° East 500 575 34,900  Level Houston Center
01:26PM 31.0961 -98.1703 99° East 508 585 34,900  Level Houston Center
01:27PM 31.0747 -98.0061 99° East 508 585 34,900  Level Houston Center
01:28PM 31.0531 -97.8425 99° East 508 585 34,900  Level Houston Center
01:29PM 31.0297 -97.6800 99° East 504 580 34,900  Level Houston Center
01:30PM 31.0081 -97.5183 99° East 501 577 35,000  Climbing Houston Center
01:31PM 30.9872 -97.3544 98° East 504 580 34,900 -60 Descending Houston Center
01:32PM 30.9569 -97.1639 100° East 511 588 34,900  Level Houston Center
01:33PM 30.9375 -97.0083 98° East 526 605 34,900 -1,380 Level Houston Center
01:34PM 30.9153 -96.8444 99° East 525 604 32,100 -3,360 Descending Houston Center
01:35PM 30.8897 -96.6808 100° East 517 595 28,000 -3,900 Descending Houston Center
01:36PM 30.8692 -96.5297 99° East 488 562 24,200 -3,180 Descending Houston Center
01:37PM 30.8044 -96.4064 121° Southeast 452 520 21,600 -2,460 Descending Houston Center
01:38PM 30.7456 -96.3147 127° Southeast 418 481 19,900 -2,040 Descending Houston Center
01:39PM 30.6736 -96.2064 128° Southeast 410 472 18,000 -1,860 Descending Houston Center
01:40PM 30.6078 -96.0997 126° Southeast 391 450 16,200 -1,800 Descending Houston Center
01:41PM 30.5431 -96.0028 128° Southeast 378 435 14,400 -1,800 Descending Houston Center
01:42PM 30.4797 -95.9036 127° Southeast 369 425 12,600 -1,260 Descending Houston Center
01:43PM 30.4183 -95.8258 132° Southeast 325 374 11,900 -1,200 Descending Houston Center
01:44PM 30.3492 -95.7542 138° Southeast 316 364 10,200 -1,620 Descending Houston Center
01:45PM 30.2822 -95.6844 138° Southeast 312 359 8,700 -1,440 Descending Houston Center
01:46PM 30.2219 -95.6214 138° Southeast 298 343 7,300 -840 Descending Houston Center
01:47PM 30.1503 -95.5478 138° Southeast 300 345 7,000 -180 Descending Houston Center
01:48PM 30.1064 -95.4783 126° Southeast 295 339 7,000 -360 Level Houston Center
01:49PM 30.1064 -95.3864 90° East 289 333 6,400 -540 Descending Houston Center
01:50PM 30.1067 -95.2969 90° East 250 288 6,000 -660 Descending Houston Center
01:51PM 30.1069 -95.2100 90° East 236 272 5,100 -960 Descending Houston Center
01:52PM 30.0794 -95.1408 115° Southeast 235 270 4,000 -600 Descending Houston Center
01:53PM 30.0297 -95.1036 147° Southeast 227 261 4,000 -360 Level Houston Center
01:55PM 29.9836 -95.1261 203° Southwest 193 222 3,300 -1,080 Descending Houston Center
01:56PM 29.9769 -95.1897 263° West 196 226 1,900 -1,140 Descending Houston Center
01:57PM 29.9778 -95.2450 271° West 153 176 1,100 -840 Descending Houston Center
01:58PM 29.9781 -95.2933 270° West 148 170 300 -780 Descending Houston Center